sensor_id;sensor_type;location;lat;lon;timestamp;pressure;altitude;pressure_sealevel;temperature;humidity
71344;BME280;59146;43.850;25.948;2023-04-22T00:00:00;100823.78;;;13.03;72.48
71344;BME280;59146;43.850;25.948;2023-04-22T00:02:25;100835.38;;;13.13;72.70
71344;BME280;59146;43.850;25.948;2023-04-22T00:04:51;100827.63;;;13.24;71.91
71344;BME280;59146;43.850;25.948;2023-04-22T00:07:17;100772.91;;;13.05;71.14
71344;BME280;59146;43.850;25.948;2023-04-22T00:09:42;100783.00;;;13.11;70.98
71344;BME280;59146;43.850;25.948;2023-04-22T00:12:08;100692.53;;;12.40;71.55
71344;BME280;59146;43.850;25.948;2023-04-22T00:14:35;100827.69;;;13.10;71.95
71344;BME280;59146;43.850;25.948;2023-04-22T00:17:01;100771.31;;;12.90;71.64
71344;BME280;59146;43.850;25.948;2023-04-22T00:19:27;100826.81;;;13.23;71.22
71344;BME280;59146;43.850;25.948;2023-04-22T00:21:53;100794.09;;;13.02;71.29
71344;BME280;59146;43.850;25.948;2023-04-22T00:24:18;100800.56;;;12.97;71.39
71344;BME280;59146;43.850;25.948;2023-04-22T00:26:44;100828.69;;;13.21;71.25
71344;BME280;59146;43.850;25.948;2023-04-22T00:29:09;100814.09;;;13.03;71.68
71344;BME280;59146;43.850;25.948;2023-04-22T00:31:34;100811.88;;;12.97;71.56
71344;BME280;59146;43.850;25.948;2023-04-22T00:34:00;100863.13;;;13.29;71.47
71344;BME280;59146;43.850;25.948;2023-04-22T00:36:26;100831.72;;;13.15;71.42
71344;BME280;59146;43.850;25.948;2023-04-22T00:38:52;100836.84;;;13.17;71.03
71344;BME280;59146;43.850;25.948;2023-04-22T00:41:18;100832.53;;;13.16;70.89
71344;BME280;59146;43.850;25.948;2023-04-22T00:43:44;100830.34;;;13.22;70.70
71344;BME280;59146;43.850;25.948;2023-04-22T00:46:10;100838.28;;;13.08;74.27
71344;BME280;59146;43.850;25.948;2023-04-22T00:48:38;100807.34;;;12.87;76.01
71344;BME280;59146;43.850;25.948;2023-04-22T00:51:04;100848.94;;;13.19;76.03
71344;BME280;59146;43.850;25.948;2023-04-22T00:53:30;100843.72;;;13.05;76.33
71344;BME280;59146;43.850;25.948;2023-04-22T00:55:55;100850.19;;;13.26;75.28
71344;BME280;59146;43.850;25.948;2023-04-22T00:58:21;100820.19;;;13.04;75.22
71344;BME280;59146;43.850;25.948;2023-04-22T01:00:50;100849.84;;;13.18;74.73
71344;BME280;59146;43.850;25.948;2023-04-22T01:03:15;100801.94;;;13.02;75.39
71344;BME280;59146;43.850;25.948;2023-04-22T01:05:42;100837.88;;;13.14;75.69
71344;BME280;59146;43.850;25.948;2023-04-22T01:08:07;100820.59;;;12.98;75.74
71344;BME280;59146;43.850;25.948;2023-04-22T01:10:33;100837.44;;;13.08;76.77
71344;BME280;59146;43.850;25.948;2023-04-22T01:12:59;100802.41;;;12.82;76.98
71344;BME280;59146;43.850;25.948;2023-04-22T01:15:25;100839.44;;;13.04;76.86
71344;BME280;59146;43.850;25.948;2023-04-22T01:17:52;100811.84;;;12.85;76.51
71344;BME280;59146;43.850;25.948;2023-04-22T01:20:18;100823.69;;;12.77;76.15
71344;BME280;59146;43.850;25.948;2023-04-22T01:22:47;100880.69;;;13.15;75.77
71344;BME280;59146;43.850;25.948;2023-04-22T01:25:14;100837.94;;;12.86;75.95
71344;BME280;59146;43.850;25.948;2023-04-22T01:27:40;100863.00;;;12.77;77.87
71344;BME280;59146;43.850;25.948;2023-04-22T01:30:07;100766.09;;;12.09;79.09
71344;BME280;59146;43.850;25.948;2023-04-22T01:32:32;100864.81;;;12.63;80.08
71344;BME280;59146;43.850;25.948;2023-04-22T01:34:58;100836.59;;;12.40;80.65
71344;BME280;59146;43.850;25.948;2023-04-22T01:37:24;100861.09;;;12.39;81.16
71344;BME280;59146;43.850;25.948;2023-04-22T01:39:49;100794.97;;;12.21;80.74
71344;BME280;59146;43.850;25.948;2023-04-22T01:42:15;100842.94;;;12.50;81.03
71344;BME280;59146;43.850;25.948;2023-04-22T01:44:41;100815.72;;;12.38;80.55
71344;BME280;59146;43.850;25.948;2023-04-22T01:47:06;100797.13;;;12.29;80.38
71344;BME280;59146;43.850;25.948;2023-04-22T01:49:32;100838.38;;;12.39;79.02
71344;BME280;59146;43.850;25.948;2023-04-22T01:51:58;100850.81;;;12.50;78.79
71344;BME280;59146;43.850;25.948;2023-04-22T01:54:23;100785.53;;;12.33;77.91
71344;BME280;59146;43.850;25.948;2023-04-22T01:56:51;100785.53;;;12.33;77.47
71344;BME280;59146;43.850;25.948;2023-04-22T01:59:17;100847.91;;;12.54;78.24
71344;BME280;59146;43.850;25.948;2023-04-22T02:01:43;100840.13;;;12.53;78.25
71344;BME280;59146;43.850;25.948;2023-04-22T02:04:08;100831.84;;;12.59;77.63
71344;BME280;59146;43.850;25.948;2023-04-22T02:06:36;100818.41;;;12.51;77.49
71344;BME280;59146;43.850;25.948;2023-04-22T02:09:02;100803.81;;;12.47;77.40
71344;BME280;59146;43.850;25.948;2023-04-22T02:11:27;100796.53;;;12.52;76.73
71344;BME280;59146;43.850;25.948;2023-04-22T02:13:53;100815.56;;;12.68;76.60
71344;BME280;59146;43.850;25.948;2023-04-22T02:16:18;100832.75;;;12.72;76.69
71344;BME280;59146;43.850;25.948;2023-04-22T02:18:44;100836.47;;;12.82;76.80
71344;BME280;59146;43.850;25.948;2023-04-22T02:21:09;100802.56;;;12.66;76.76
71344;BME280;59146;43.850;25.948;2023-04-22T02:23:35;100777.22;;;12.53;75.93
71344;BME280;59146;43.850;25.948;2023-04-22T02:26:01;100811.22;;;12.54;75.80
71344;BME280;59146;43.850;25.948;2023-04-22T02:28:27;100787.47;;;12.43;76.31
71344;BME280;59146;43.850;25.948;2023-04-22T02:30:53;100796.69;;;12.49;76.82
71344;BME280;59146;43.850;25.948;2023-04-22T02:33:18;100802.00;;;12.61;76.19
71344;BME280;59146;43.850;25.948;2023-04-22T02:35:44;100790.03;;;12.57;75.18
71344;BME280;59146;43.850;25.948;2023-04-22T02:38:09;100768.63;;;12.51;75.30
71344;BME280;59146;43.850;25.948;2023-04-22T02:40:35;100838.50;;;12.91;75.54
71344;BME280;59146;43.850;25.948;2023-04-22T02:43:00;100780.97;;;12.63;75.44
71344;BME280;59146;43.850;25.948;2023-04-22T02:45:26;100814.03;;;12.78;75.57
71344;BME280;59146;43.850;25.948;2023-04-22T02:47:51;100745.72;;;12.40;75.51
71344;BME280;59146;43.850;25.948;2023-04-22T02:50:17;100770.72;;;12.46;76.27
71344;BME280;59146;43.850;25.948;2023-04-22T02:52:42;100812.47;;;12.61;76.44
71344;BME280;59146;43.850;25.948;2023-04-22T02:55:08;100813.50;;;12.73;75.73
71344;BME280;59146;43.850;25.948;2023-04-22T02:57:34;100826.84;;;12.83;75.58
71344;BME280;59146;43.850;25.948;2023-04-22T02:59:59;100831.03;;;12.85;75.29
71344;BME280;59146;43.850;25.948;2023-04-22T03:02:24;100825.75;;;12.72;75.42
71344;BME280;59146;43.850;25.948;2023-04-22T03:04:50;100841.94;;;12.79;75.53
71344;BME280;59146;43.850;25.948;2023-04-22T03:07:18;100840.22;;;12.78;75.48
71344;BME280;59146;43.850;25.948;2023-04-22T03:09:44;100779.53;;;12.31;76.14
71344;BME280;59146;43.850;25.948;2023-04-22T03:12:09;100791.31;;;12.38;76.68
71344;BME280;59146;43.850;25.948;2023-04-22T03:14:34;100817.03;;;12.45;76.99
71344;BME280;59146;43.850;25.948;2023-04-22T03:17:00;100818.72;;;12.32;78.03
71344;BME280;59146;43.850;25.948;2023-04-22T03:19:25;100821.91;;;12.23;79.96
71344;BME280;59146;43.850;25.948;2023-04-22T03:21:51;100782.00;;;11.77;81.09
71344;BME280;59146;43.850;25.948;2023-04-22T03:24:16;100838.66;;;12.07;81.49
71344;BME280;59146;43.850;25.948;2023-04-22T03:26:41;100760.75;;;11.40;82.37
71344;BME280;59146;43.850;25.948;2023-04-22T03:29:07;100759.84;;;11.55;82.86
71344;BME280;59146;43.850;25.948;2023-04-22T03:31:32;100833.72;;;11.74;84.74
71344;BME280;59146;43.850;25.948;2023-04-22T03:33:58;100846.53;;;11.78;85.89
71344;BME280;59146;43.850;25.948;2023-04-22T03:36:23;100773.44;;;11.46;85.18
71344;BME280;59146;43.850;25.948;2023-04-22T03:38:48;100845.03;;;11.88;84.79
71344;BME280;59146;43.850;25.948;2023-04-22T03:41:15;100796.94;;;11.61;84.92
71344;BME280;59146;43.850;25.948;2023-04-22T03:43:40;100804.84;;;12.04;83.27
71344;BME280;59146;43.850;25.948;2023-04-22T03:46:06;100817.44;;;12.93;78.15
71344;BME280;59146;43.850;25.948;2023-04-22T03:48:31;100851.84;;;13.79;75.81
71344;BME280;59146;43.850;25.948;2023-04-22T03:51:00;100872.13;;;13.90;74.40
71344;BME280;59146;43.850;25.948;2023-04-22T03:53:25;100873.47;;;13.83;74.81
71344;BME280;59146;43.850;25.948;2023-04-22T03:55:51;100853.28;;;14.46;71.38
71344;BME280;59146;43.850;25.948;2023-04-22T03:58:16;100878.06;;;15.62;67.41
71344;BME280;59146;43.850;25.948;2023-04-22T04:00:42;100879.56;;;16.32;63.86
71344;BME280;59146;43.850;25.948;2023-04-22T04:03:07;100889.66;;;17.14;61.50
71344;BME280;59146;43.850;25.948;2023-04-22T04:05:33;100880.94;;;17.66;58.37
71344;BME280;59146;43.850;25.948;2023-04-22T04:07:58;100837.38;;;17.81;57.29
71344;BME280;59146;43.850;25.948;2023-04-22T04:10:24;100901.94;;;18.39;55.67
71344;BME280;59146;43.850;25.948;2023-04-22T04:12:49;100865.66;;;18.81;53.59
71344;BME280;59146;43.850;25.948;2023-04-22T04:15:15;100870.28;;;19.27;51.93
71344;BME280;59146;43.850;25.948;2023-04-22T04:17:43;100858.63;;;19.95;50.22
71344;BME280;59146;43.850;25.948;2023-04-22T04:20:09;100909.22;;;20.30;48.97
71344;BME280;59146;43.850;25.948;2023-04-22T04:22:34;100888.34;;;20.72;47.70
71344;BME280;59146;43.850;25.948;2023-04-22T04:25:00;100866.75;;;21.11;46.20
71344;BME280;59146;43.850;25.948;2023-04-22T04:27:26;100912.28;;;22.12;44.44
71344;BME280;59146;43.850;25.948;2023-04-22T04:29:52;100881.78;;;21.99;43.82
71344;BME280;59146;43.850;25.948;2023-04-22T04:32:17;100858.88;;;22.40;42.53
71344;BME280;59146;43.850;25.948;2023-04-22T04:34:42;100904.84;;;22.50;42.72
71344;BME280;59146;43.850;25.948;2023-04-22T04:37:08;100935.50;;;23.37;41.38
71344;BME280;59146;43.850;25.948;2023-04-22T04:39:33;100925.84;;;23.68;40.46
71344;BME280;59146;43.850;25.948;2023-04-22T04:41:59;100919.88;;;23.09;40.97
71344;BME280;59146;43.850;25.948;2023-04-22T04:44:24;100923.28;;;23.19;40.54
71344;BME280;59146;43.850;25.948;2023-04-22T04:46:56;100906.16;;;23.37;39.48
71344;BME280;59146;43.850;25.948;2023-04-22T04:49:22;100943.16;;;23.89;39.48
71344;BME280;59146;43.850;25.948;2023-04-22T04:51:48;100938.53;;;23.09;40.22
71344;BME280;59146;43.850;25.948;2023-04-22T04:54:14;100955.19;;;23.03;40.55
71344;BME280;59146;43.850;25.948;2023-04-22T04:56:40;100962.75;;;22.81;40.78
71344;BME280;59146;43.850;25.948;2023-04-22T04:59:05;100970.59;;;22.57;41.51
71344;BME280;59146;43.850;25.948;2023-04-22T05:01:31;100969.53;;;21.81;43.07
71344;BME280;59146;43.850;25.948;2023-04-22T05:03:56;100954.69;;;22.99;41.00
71344;BME280;59146;43.850;25.948;2023-04-22T05:06:21;100884.84;;;22.12;40.97
71344;BME280;59146;43.850;25.948;2023-04-22T05:08:47;100956.69;;;21.06;45.03
71344;BME280;59146;43.850;25.948;2023-04-22T05:11:12;100967.69;;;18.74;52.74
71344;BME280;59146;43.850;25.948;2023-04-22T05:13:38;100940.88;;;17.23;58.18
71344;BME280;59146;43.850;25.948;2023-04-22T05:16:03;100966.28;;;17.35;58.96
71344;BME280;59146;43.850;25.948;2023-04-22T05:18:29;100950.31;;;17.68;56.58
71344;BME280;59146;43.850;25.948;2023-04-22T05:20:54;100981.56;;;17.09;60.58
71344;BME280;59146;43.850;25.948;2023-04-22T05:23:23;100943.31;;;17.15;58.74
71344;BME280;59146;43.850;25.948;2023-04-22T05:25:48;100903.19;;;16.78;58.65
71344;BME280;59146;43.850;25.948;2023-04-22T05:28:13;100948.16;;;16.77;59.24
71344;BME280;59146;43.850;25.948;2023-04-22T05:30:39;100951.34;;;16.36;61.07
71344;BME280;59146;43.850;25.948;2023-04-22T05:33:04;100952.63;;;15.97;62.22
71344;BME280;59146;43.850;25.948;2023-04-22T05:35:30;100934.38;;;15.94;62.03
71344;BME280;59146;43.850;25.948;2023-04-22T05:37:55;101001.78;;;16.20;62.53
71344;BME280;59146;43.850;25.948;2023-04-22T05:40:20;100963.09;;;15.75;63.26
71344;BME280;59146;43.850;25.948;2023-04-22T05:42:46;100947.97;;;15.66;63.94
71344;BME280;59146;43.850;25.948;2023-04-22T05:45:11;100904.97;;;15.42;64.81
71344;BME280;59146;43.850;25.948;2023-04-22T05:47:37;100938.53;;;15.03;66.62
71344;BME280;59146;43.850;25.948;2023-04-22T05:50:02;100977.19;;;15.27;67.31
71344;BME280;59146;43.850;25.948;2023-04-22T05:52:28;101001.25;;;15.46;67.88
71344;BME280;59146;43.850;25.948;2023-04-22T05:54:53;100999.47;;;15.34;68.28
71344;BME280;59146;43.850;25.948;2023-04-22T05:57:19;100975.81;;;14.97;69.96
71344;BME280;59146;43.850;25.948;2023-04-22T05:59:44;101002.69;;;15.13;69.91
71344;BME280;59146;43.850;25.948;2023-04-22T06:02:10;100943.47;;;14.72;70.65
71344;BME280;59146;43.850;25.948;2023-04-22T06:04:35;101015.09;;;15.24;69.70
71344;BME280;59146;43.850;25.948;2023-04-22T06:07:01;101019.59;;;15.58;69.29
71344;BME280;59146;43.850;25.948;2023-04-22T06:09:26;101022.03;;;15.85;66.37
71344;BME280;59146;43.850;25.948;2023-04-22T06:11:52;101013.94;;;15.75;66.66
71344;BME280;59146;43.850;25.948;2023-04-22T06:14:17;100969.75;;;15.68;66.20
71344;BME280;59146;43.850;25.948;2023-04-22T06:16:42;101002.28;;;16.36;63.59
71344;BME280;59146;43.850;25.948;2023-04-22T06:19:08;100991.09;;;16.79;62.76
71344;BME280;59146;43.850;25.948;2023-04-22T06:21:33;101021.41;;;17.71;60.48
71344;BME280;59146;43.850;25.948;2023-04-22T06:24:01;101053.91;;;18.14;57.36
71344;BME280;59146;43.850;25.948;2023-04-22T06:26:26;101069.66;;;17.84;57.87
71344;BME280;59146;43.850;25.948;2023-04-22T06:28:52;101047.53;;;17.85;57.89
71344;BME280;59146;43.850;25.948;2023-04-22T06:31:17;101061.31;;;18.00;56.67
71344;BME280;59146;43.850;25.948;2023-04-22T06:33:43;101043.81;;;17.34;56.64
71344;BME280;59146;43.850;25.948;2023-04-22T06:36:08;101054.75;;;17.07;58.97
71344;BME280;59146;43.850;25.948;2023-04-22T06:38:34;101069.06;;;17.05;59.09
71344;BME280;59146;43.850;25.948;2023-04-22T06:41:00;101007.97;;;16.76;57.88
71344;BME280;59146;43.850;25.948;2023-04-22T06:43:25;101013.47;;;16.51;58.73
71344;BME280;59146;43.850;25.948;2023-04-22T06:45:51;101022.81;;;16.55;58.27
71344;BME280;59146;43.850;25.948;2023-04-22T06:48:16;101011.72;;;16.62;57.77
71344;BME280;59146;43.850;25.948;2023-04-22T06:50:41;101078.28;;;17.10;57.64
71344;BME280;59146;43.850;25.948;2023-04-22T06:53:07;101048.63;;;17.18;56.70
71344;BME280;59146;43.850;25.948;2023-04-22T06:55:34;101019.56;;;17.29;56.73
71344;BME280;59146;43.850;25.948;2023-04-22T06:58:00;101080.06;;;17.97;56.76
71344;BME280;59146;43.850;25.948;2023-04-22T07:00:25;101046.31;;;17.89;55.50
71344;BME280;59146;43.850;25.948;2023-04-22T07:02:52;101070.56;;;18.26;53.03
71344;BME280;59146;43.850;25.948;2023-04-22T07:05:17;101069.88;;;18.45;53.79
71344;BME280;59146;43.850;25.948;2023-04-22T07:07:43;101089.06;;;18.88;46.15
71344;BME280;59146;43.850;25.948;2023-04-22T07:10:09;100997.19;;;17.87;41.74
71344;BME280;59146;43.850;25.948;2023-04-22T07:12:35;101018.06;;;17.69;43.15
71344;BME280;59146;43.850;25.948;2023-04-22T07:15:00;101026.84;;;17.47;43.32
71344;BME280;59146;43.850;25.948;2023-04-22T07:17:26;101035.00;;;17.67;43.83
71344;BME280;59146;43.850;25.948;2023-04-22T07:19:51;101079.44;;;17.62;43.42
71344;BME280;59146;43.850;25.948;2023-04-22T07:22:17;100980.97;;;17.06;42.68
71344;BME280;59146;43.850;25.948;2023-04-22T07:24:42;101010.88;;;16.73;42.75
71344;BME280;59146;43.850;25.948;2023-04-22T07:27:08;101080.06;;;17.10;43.39
71344;BME280;59146;43.850;25.948;2023-04-22T07:29:33;100958.00;;;15.96;44.47
71344;BME280;59146;43.850;25.948;2023-04-22T07:31:59;101036.75;;;16.22;42.88
71344;BME280;59146;43.850;25.948;2023-04-22T07:34:24;101072.13;;;16.65;42.82
71344;BME280;59146;43.850;25.948;2023-04-22T07:36:50;101086.19;;;16.99;42.93
71344;BME280;59146;43.850;25.948;2023-04-22T07:39:16;101108.84;;;17.24;41.69
71344;BME280;59146;43.850;25.948;2023-04-22T07:41:42;101075.28;;;17.15;42.03
71344;BME280;59146;43.850;25.948;2023-04-22T07:44:07;101099.84;;;17.37;42.24
71344;BME280;59146;43.850;25.948;2023-04-22T07:46:34;101110.31;;;17.50;41.84
71344;BME280;59146;43.850;25.948;2023-04-22T07:49:00;100912.66;;;16.14;41.85
71344;BME280;59146;43.850;25.948;2023-04-22T07:51:25;101031.38;;;16.92;41.94
71344;BME280;59146;43.850;25.948;2023-04-22T07:53:51;101063.66;;;17.06;41.65
71344;BME280;59146;43.850;25.948;2023-04-22T07:56:16;101069.88;;;17.16;41.36
71344;BME280;59146;43.850;25.948;2023-04-22T07:58:41;101035.66;;;17.26;40.69
71344;BME280;59146;43.850;25.948;2023-04-22T08:01:07;101063.97;;;17.24;40.70
71344;BME280;59146;43.850;25.948;2023-04-22T08:03:32;101047.91;;;17.27;41.16
71344;BME280;59146;43.850;25.948;2023-04-22T08:05:57;101065.50;;;17.60;40.50
71344;BME280;59146;43.850;25.948;2023-04-22T08:08:24;101107.81;;;17.91;40.74
71344;BME280;59146;43.850;25.948;2023-04-22T08:10:49;101123.63;;;18.13;40.47
71344;BME280;59146;43.850;25.948;2023-04-22T08:13:15;101101.28;;;18.06;39.41
71344;BME280;59146;43.850;25.948;2023-04-22T08:15:40;101086.03;;;17.67;39.35
71344;BME280;59146;43.850;25.948;2023-04-22T08:18:06;101096.59;;;17.78;39.48
71344;BME280;59146;43.850;25.948;2023-04-22T08:20:31;101067.28;;;17.70;39.68
71344;BME280;59146;43.850;25.948;2023-04-22T08:22:56;101068.25;;;17.80;39.71
71344;BME280;59146;43.850;25.948;2023-04-22T08:25:25;101109.13;;;18.28;39.64
71344;BME280;59146;43.850;25.948;2023-04-22T08:27:50;101123.88;;;18.10;39.93
71344;BME280;59146;43.850;25.948;2023-04-22T08:30:16;101118.19;;;17.72;40.19
71344;BME280;59146;43.850;25.948;2023-04-22T08:32:42;101106.72;;;17.40;40.51
71344;BME280;59146;43.850;25.948;2023-04-22T08:35:07;101106.97;;;17.15;42.79
71344;BME280;59146;43.850;25.948;2023-04-22T08:37:33;101135.88;;;17.27;43.80
71344;BME280;59146;43.850;25.948;2023-04-22T08:39:59;101121.81;;;17.27;42.36
71344;BME280;59146;43.850;25.948;2023-04-22T08:42:25;101126.03;;;17.52;41.21
71344;BME280;59146;43.850;25.948;2023-04-22T08:44:52;101129.47;;;17.85;40.96
71344;BME280;59146;43.850;25.948;2023-04-22T08:47:19;101087.19;;;17.85;40.33
71344;BME280;59146;43.850;25.948;2023-04-22T08:49:46;101065.31;;;17.83;38.72
71344;BME280;59146;43.850;25.948;2023-04-22T08:52:11;100981.38;;;17.44;39.21
71344;BME280;59146;43.850;25.948;2023-04-22T08:54:42;101054.28;;;18.10;38.75
71344;BME280;59146;43.850;25.948;2023-04-22T08:57:07;101036.47;;;18.44;39.43
71344;BME280;59146;43.850;25.948;2023-04-22T08:59:36;101087.50;;;19.36;40.10
71344;BME280;59146;43.850;25.948;2023-04-22T09:02:03;101130.47;;;19.89;35.43
71344;BME280;59146;43.850;25.948;2023-04-22T09:04:29;101132.44;;;19.47;35.83
71344;BME280;59146;43.850;25.948;2023-04-22T09:06:55;101129.84;;;19.66;35.41
71344;BME280;59146;43.850;25.948;2023-04-22T09:09:21;101122.09;;;19.44;35.05
71344;BME280;59146;43.850;25.948;2023-04-22T09:11:48;101104.44;;;19.24;38.12
71344;BME280;59146;43.850;25.948;2023-04-22T09:14:15;100973.22;;;18.41;34.83
71344;BME280;59146;43.850;25.948;2023-04-22T09:16:46;101110.66;;;19.14;32.50
71344;BME280;59146;43.850;25.948;2023-04-22T09:19:12;101114.84;;;19.46;38.16
71344;BME280;59146;43.850;25.948;2023-04-22T09:21:39;101104.75;;;19.70;37.51
71344;BME280;59146;43.850;25.948;2023-04-22T09:24:07;101103.00;;;19.50;37.02
71344;BME280;59146;43.850;25.948;2023-04-22T09:26:32;101070.16;;;18.92;38.56
71344;BME280;59146;43.850;25.948;2023-04-22T09:28:58;101096.66;;;19.02;36.41
71344;BME280;59146;43.850;25.948;2023-04-22T09:31:26;101063.63;;;18.96;35.81
71344;BME280;59146;43.850;25.948;2023-04-22T09:33:54;101128.41;;;19.43;37.90
71344;BME280;59146;43.850;25.948;2023-04-22T09:36:30;101122.00;;;19.46;37.15
71344;BME280;59146;43.850;25.948;2023-04-22T09:39:00;101061.53;;;19.30;38.08
71344;BME280;59146;43.850;25.948;2023-04-22T09:41:44;101084.91;;;19.65;35.77
71344;BME280;59146;43.850;25.948;2023-04-22T09:44:13;101099.47;;;19.70;35.49
71344;BME280;59146;43.850;25.948;2023-04-22T09:46:42;101058.88;;;19.30;34.44
71344;BME280;59146;43.850;25.948;2023-04-22T09:49:07;101085.44;;;19.10;34.21
71344;BME280;59146;43.850;25.948;2023-04-22T09:51:33;101091.50;;;19.31;35.18
71344;BME280;59146;43.850;25.948;2023-04-22T09:54:03;101109.91;;;19.32;32.42
71344;BME280;59146;43.850;25.948;2023-04-22T09:56:46;101066.88;;;18.49;31.37
71344;BME280;59146;43.850;25.948;2023-04-22T09:59:32;101111.50;;;18.63;33.03
71344;BME280;59146;43.850;25.948;2023-04-22T10:01:59;101056.69;;;18.34;33.35
71344;BME280;59146;43.850;25.948;2023-04-22T10:04:27;101065.59;;;18.33;34.12
71344;BME280;59146;43.850;25.948;2023-04-22T10:06:53;101069.94;;;18.54;33.87
71344;BME280;59146;43.850;25.948;2023-04-22T10:09:22;101073.97;;;18.79;33.38
71344;BME280;59146;43.850;25.948;2023-04-22T10:11:50;101056.31;;;19.10;35.11
71344;BME280;59146;43.850;25.948;2023-04-22T10:14:17;101083.41;;;19.62;36.79
71344;BME280;59146;43.850;25.948;2023-04-22T10:16:44;101061.66;;;19.78;34.19
71344;BME280;59146;43.850;25.948;2023-04-22T10:19:13;101025.22;;;19.61;33.58
71344;BME280;59146;43.850;25.948;2023-04-22T10:21:42;101046.47;;;19.90;30.50
71344;BME280;59146;43.850;25.948;2023-04-22T10:24:14;101014.75;;;19.40;31.28
71344;BME280;59146;43.850;25.948;2023-04-22T10:26:55;101076.44;;;19.80;30.68
71344;BME280;59146;43.850;25.948;2023-04-22T10:29:22;101075.47;;;19.81;30.99
71344;BME280;59146;43.850;25.948;2023-04-22T10:34:18;101033.78;;;19.25;30.09
71344;BME280;59146;43.850;25.948;2023-04-22T10:36:57;101079.09;;;19.31;31.51
71344;BME280;59146;43.850;25.948;2023-04-22T10:39:24;101074.31;;;19.55;31.77
71344;BME280;59146;43.850;25.948;2023-04-22T10:42:06;101070.00;;;19.73;31.12
71344;BME280;59146;43.850;25.948;2023-04-22T10:52:35;101047.28;;;19.31;32.57
71344;BME280;59146;43.850;25.948;2023-04-22T10:55:01;101019.69;;;18.84;32.14
71344;BME280;59146;43.850;25.948;2023-04-22T10:57:32;101045.13;;;19.06;32.94
71344;BME280;59146;43.850;25.948;2023-04-22T11:00:16;101067.91;;;19.58;33.39
71344;BME280;59146;43.850;25.948;2023-04-22T11:02:50;101044.91;;;19.68;33.24
71344;BME280;59146;43.850;25.948;2023-04-22T11:07:46;101057.31;;;19.67;35.12
71344;BME280;59146;43.850;25.948;2023-04-22T11:12:57;101018.31;;;19.30;35.53
71344;BME280;59146;43.850;25.948;2023-04-22T11:15:22;101010.00;;;19.34;36.69
71344;BME280;59146;43.850;25.948;2023-04-22T11:17:52;101067.13;;;19.96;34.96
71344;BME280;59146;43.850;25.948;2023-04-22T11:20:18;101047.00;;;19.74;34.69
71344;BME280;59146;43.850;25.948;2023-04-22T11:22:48;101051.91;;;19.78;34.67
71344;BME280;59146;43.850;25.948;2023-04-22T11:25:14;101019.09;;;19.79;34.08
71344;BME280;59146;43.850;25.948;2023-04-22T11:27:41;101068.09;;;20.04;34.36
71344;BME280;59146;43.850;25.948;2023-04-22T11:30:17;101024.97;;;19.64;35.40
71344;BME280;59146;43.850;25.948;2023-04-22T11:32:43;101057.22;;;20.26;34.61
71344;BME280;59146;43.850;25.948;2023-04-22T11:35:20;101039.47;;;20.17;34.33
71344;BME280;59146;43.850;25.948;2023-04-22T11:37:47;101063.94;;;20.21;35.39
71344;BME280;59146;43.850;25.948;2023-04-22T11:40:31;101033.06;;;20.01;33.44
71344;BME280;59146;43.850;25.948;2023-04-22T11:42:59;100997.91;;;19.60;35.38
71344;BME280;59146;43.850;25.948;2023-04-22T11:45:26;101004.59;;;19.74;35.79
71344;BME280;59146;43.850;25.948;2023-04-22T11:47:53;100994.53;;;19.97;34.87
71344;BME280;59146;43.850;25.948;2023-04-22T11:50:27;101052.59;;;20.28;34.89
71344;BME280;59146;43.850;25.948;2023-04-22T11:55:33;100973.22;;;19.01;34.77
71344;BME280;59146;43.850;25.948;2023-04-22T11:58:10;101022.44;;;19.53;34.24
71344;BME280;59146;43.850;25.948;2023-04-22T12:03:20;101031.91;;;19.55;34.73
71344;BME280;59146;43.850;25.948;2023-04-22T12:05:58;101051.19;;;19.86;34.35
71344;BME280;59146;43.850;25.948;2023-04-22T12:08:32;101003.19;;;19.79;34.96
71344;BME280;59146;43.850;25.948;2023-04-22T12:11:06;101044.38;;;20.22;33.64
71344;BME280;59146;43.850;25.948;2023-04-22T12:13:41;101050.91;;;20.18;32.96
71344;BME280;59146;43.850;25.948;2023-04-22T12:16:16;100974.19;;;19.88;33.30
71344;BME280;59146;43.850;25.948;2023-04-22T12:18:51;100999.44;;;20.20;35.79
71344;BME280;59146;43.850;25.948;2023-04-22T12:21:21;100878.94;;;19.29;33.94
71344;BME280;59146;43.850;25.948;2023-04-22T12:23:52;101025.81;;;20.12;35.00
71344;BME280;59146;43.850;25.948;2023-04-22T12:26:19;101024.97;;;19.93;32.92
71344;BME280;59146;43.850;25.948;2023-04-22T12:28:46;101013.94;;;19.49;34.98
71344;BME280;59146;43.850;25.948;2023-04-22T12:31:13;101038.50;;;19.70;34.41
71344;BME280;59146;43.850;25.948;2023-04-22T12:33:40;101038.94;;;20.33;32.88
71344;BME280;59146;43.850;25.948;2023-04-22T12:36:06;100905.56;;;19.65;31.58
71344;BME280;59146;43.850;25.948;2023-04-22T12:38:31;101034.75;;;19.73;31.84
71344;BME280;59146;43.850;25.948;2023-04-22T12:40:57;101042.81;;;19.91;32.61
71344;BME280;59146;43.850;25.948;2023-04-22T12:43:23;101009.91;;;19.93;32.05
71344;BME280;59146;43.850;25.948;2023-04-22T12:45:49;101017.00;;;19.93;34.37
71344;BME280;59146;43.850;25.948;2023-04-22T12:48:14;101028.59;;;20.01;34.33
71344;BME280;59146;43.850;25.948;2023-04-22T12:50:40;101005.16;;;19.68;36.72
71344;BME280;59146;43.850;25.948;2023-04-22T12:53:06;101000.00;;;19.66;36.68
71344;BME280;59146;43.850;25.948;2023-04-22T12:55:31;101015.50;;;19.71;36.09
71344;BME280;59146;43.850;25.948;2023-04-22T12:57:57;100983.97;;;19.68;35.36